createdAt,value
2018-04-25T00:01:32.308Z,100639.05
2018-04-25T00:04:00.644Z,100641.25
2018-04-25T00:06:29.029Z,100632.14
2018-04-25T00:08:57.391Z,100631.71
2018-04-25T00:11:25.754Z,100625.38
2018-04-25T00:13:54.439Z,100614.44
2018-04-25T00:16:22.831Z,100610.31
2018-04-25T00:18:51.200Z,100600.45
2018-04-25T00:21:19.554Z,100601.40
2018-04-25T00:23:47.884Z,100599.09
2018-04-25T00:26:16.256Z,100598.45
2018-04-25T00:28:44.645Z,100586.70
2018-04-25T00:31:13.024Z,100588.02
2018-04-25T00:33:41.380Z,100589.86
2018-04-25T00:36:15.631Z,100576.11
2018-04-25T00:38:43.962Z,100577.66
2018-04-25T00:41:13.054Z,100578.17
2018-04-25T00:43:42.245Z,100575.92
2018-04-25T00:46:11.385Z,100570.09
2018-04-25T00:48:42.049Z,100553.48
2018-04-25T00:51:10.406Z,100539.48
2018-04-25T00:53:38.770Z,100530.84
2018-04-25T00:56:07.096Z,100522.80
2018-04-25T00:58:36.409Z,100519.22
2018-04-25T01:01:04.781Z,100520.48
2018-04-25T01:03:35.042Z,100510.66
2018-04-25T01:06:03.574Z,100499.53
2018-04-25T01:08:31.948Z,100496.61
2018-04-25T01:11:00.434Z,100483.48
2018-04-25T01:13:28.799Z,100476.59
2018-04-25T01:15:57.136Z,100468.61
2018-04-25T01:18:26.240Z,100465.27
2018-04-25T01:20:56.802Z,100466.92
2018-04-25T01:23:25.108Z,100470.22
2018-04-25T01:26:06.815Z,100468.41
2018-04-25T01:28:50.856Z,100464.27
2018-04-25T01:31:19.979Z,100455.20
2018-04-25T01:33:55.540Z,100452.80
2018-04-25T01:36:35.005Z,100448.20
2018-04-25T01:42:24.386Z,100428.64
2018-04-25T01:44:54.081Z,100424.59
2018-04-25T01:47:37.307Z,100424.46
2018-04-25T01:53:30.276Z,100412.08
2018-04-25T01:56:16.699Z,100402.38
2018-04-25T01:59:02.754Z,100392.84
2018-04-25T02:01:30.284Z,100386.27
2018-04-25T02:03:59.553Z,100388.47
2018-04-25T02:06:28.674Z,100382.41
2018-04-25T02:08:57.024Z,100372.08
2018-04-25T02:11:25.384Z,100368.61
2018-04-25T02:13:55.003Z,100362.25
2018-04-25T02:16:23.346Z,100354.91
2018-04-25T02:18:51.678Z,100346.05
2018-04-25T02:21:20.031Z,100329.11
2018-04-25T02:23:48.356Z,100335.85
2018-04-25T02:26:16.684Z,100334.59
2018-04-25T02:28:45.813Z,100324.72
2018-04-25T02:31:14.914Z,100321.41
2018-04-25T02:33:43.271Z,100311.28
2018-04-25T02:36:11.841Z,100304.28
2018-04-25T02:38:40.922Z,100311.92
2018-04-25T02:41:09.254Z,100291.50
2018-04-25T02:43:37.608Z,100299.57
2018-04-25T02:46:05.968Z,100287.27
2018-04-25T02:48:35.075Z,100277.52
2018-04-25T02:51:03.455Z,100278.28
2018-04-25T02:53:31.809Z,100264.41
2018-04-25T02:56:00.759Z,100265.89
2018-04-25T02:58:29.358Z,100258.77
2018-04-25T03:00:57.733Z,100260.41
2018-04-25T03:03:26.089Z,100253.75
2018-04-25T03:05:54.493Z,100249.94
2018-04-25T03:08:22.826Z,100245.60
2018-04-25T03:10:51.922Z,100247.44
2018-04-25T03:13:21.085Z,100237.48
2018-04-25T03:15:50.218Z,100241.25
2018-04-25T03:18:18.546Z,100248.64
2018-04-25T03:20:47.084Z,100245.08
2018-04-25T03:23:15.468Z,100237.29
2018-04-25T03:25:43.798Z,100236.02
2018-04-25T03:28:12.170Z,100213.55
2018-04-25T03:30:40.552Z,100224.89
2018-04-25T03:33:08.932Z,100212.55
2018-04-25T03:35:37.317Z,100217.08
2018-04-25T03:38:05.672Z,100216.54
2018-04-25T03:40:34.015Z,100211.41
2018-04-25T03:43:02.735Z,100214.82
2018-04-25T03:45:31.063Z,100214.27
2018-04-25T03:47:59.420Z,100214.39
2018-04-25T03:50:27.758Z,100201.50
2018-04-25T03:52:56.059Z,100208.04
2018-04-25T03:55:24.373Z,100195.82
2018-04-25T03:57:52.832Z,100194.70
2018-04-25T04:00:21.238Z,100187.66
2018-04-25T04:02:49.694Z,100186.22
2018-04-25T04:05:18.244Z,100190.74
2018-04-25T04:07:46.551Z,100184.34
2018-04-25T04:10:14.913Z,100183.57
2018-04-25T04:12:43.291Z,100185.77
2018-04-25T04:15:11.650Z,100175.02
2018-04-25T04:17:39.999Z,100172.64
2018-04-25T04:20:09.120Z,100168.33
2018-04-25T04:22:38.210Z,100167.86
2018-04-25T04:25:07.306Z,100163.63
2018-04-25T04:27:36.881Z,100162.39
2018-04-25T04:30:05.317Z,100155.59
2018-04-25T04:32:33.707Z,100155.67
2018-04-25T04:35:02.107Z,100168.73
2018-04-25T04:37:30.514Z,100166.73
2018-04-25T04:39:59.642Z,100165.73
2018-04-25T04:42:28.026Z,100159.84
2018-04-25T04:44:56.366Z,100160.00
2018-04-25T04:47:25.500Z,100155.50
2018-04-25T04:49:54.285Z,100158.20
2018-04-25T04:52:22.623Z,100156.00
2018-04-25T04:54:50.963Z,100150.63
2018-04-25T04:57:19.476Z,100156.08
2018-04-25T04:59:48.668Z,100148.61
2018-04-25T05:02:16.892Z,100149.09
2018-04-25T05:04:45.256Z,100144.19
2018-04-25T05:07:14.347Z,100141.63
2018-04-25T05:09:42.741Z,100133.84
2018-04-25T05:12:12.178Z,100141.20
2018-04-25T05:14:41.256Z,100128.50
2018-04-25T05:17:09.684Z,100131.89
2018-04-25T05:19:38.104Z,100133.38
2018-04-25T05:22:07.250Z,100125.94
2018-04-25T05:24:35.632Z,100124.07
2018-04-25T05:27:04.774Z,100120.80
2018-04-25T05:29:33.135Z,100110.53
2018-04-25T05:32:01.523Z,100112.46
2018-04-25T05:34:30.094Z,100111.29
2018-04-25T05:36:58.453Z,100115.39
2018-04-25T05:39:27.579Z,100148.97
2018-04-25T05:41:55.983Z,100115.08
2018-04-25T05:44:24.413Z,100119.39
2018-04-25T05:46:52.749Z,100122.39
2018-04-25T05:49:21.113Z,100118.95
2018-04-25T05:51:49.568Z,100109.40
2018-04-25T05:54:18.583Z,100115.70
2018-04-25T05:56:48.573Z,100117.58
2018-04-25T05:59:16.962Z,100118.84
2018-04-25T06:01:45.309Z,100107.72
2018-04-25T06:04:13.684Z,100106.26
2018-04-25T06:06:42.020Z,100108.88
2018-04-25T06:09:11.094Z,100100.17
2018-04-25T06:11:39.457Z,100092.78
2018-04-25T06:14:07.791Z,100096.06
2018-04-25T06:16:36.150Z,100101.17
2018-04-25T06:19:05.587Z,100090.81
2018-04-25T06:21:33.913Z,100086.92
2018-04-25T06:24:02.265Z,100084.59
2018-04-25T06:26:31.392Z,100086.03
2018-04-25T06:29:00.577Z,100093.17
2018-04-25T06:31:28.949Z,100077.72
2018-04-25T06:33:57.323Z,100070.14
2018-04-25T06:36:25.694Z,100065.09
2018-04-25T06:38:54.049Z,100072.16
2018-04-25T06:41:22.721Z,100069.66
2018-04-25T06:43:51.858Z,100062.20
2018-04-25T06:46:20.238Z,100066.10
2018-04-25T06:48:48.624Z,100063.77
2018-04-25T06:51:16.933Z,100063.66
2018-04-25T06:53:46.063Z,100058.39
2018-04-25T06:56:15.189Z,100049.75
2018-04-25T06:58:43.570Z,100055.56
2018-04-25T07:01:11.917Z,100061.84
2018-04-25T07:03:41.249Z,100056.35
2018-04-25T07:06:09.617Z,100047.67
2018-04-25T07:08:37.966Z,100050.97
2018-04-25T07:11:07.102Z,100048.20
2018-04-25T07:13:35.446Z,100046.03
2018-04-25T07:16:03.852Z,100051.65
2018-04-25T07:18:32.239Z,100056.84
2018-04-25T07:21:00.579Z,100050.22
2018-04-25T07:23:29.718Z,100046.44
2018-04-25T07:25:58.364Z,100054.02
2018-04-25T07:28:27.549Z,100048.33
2018-04-25T07:30:55.869Z,100043.41
2018-04-25T07:33:24.205Z,100063.41
2018-04-25T07:35:52.605Z,100050.14
2018-04-25T07:38:20.931Z,100065.77
2018-04-25T07:40:49.307Z,100060.64
2018-04-25T07:43:17.690Z,100056.66
2018-04-25T07:45:46.101Z,100052.02
2018-04-25T07:48:14.690Z,100052.14
2018-04-25T07:50:43.785Z,100056.12
2018-04-25T07:53:12.108Z,100051.62
2018-04-25T07:55:40.502Z,100045.61
2018-04-25T07:58:09.773Z,100056.50
2018-04-25T08:00:38.110Z,100077.94
2018-04-25T08:03:06.443Z,100094.92
2018-04-25T08:05:34.798Z,100079.84
2018-04-25T08:08:05.411Z,100062.06
2018-04-25T08:10:34.041Z,100070.17
2018-04-25T08:13:19.922Z,100069.66
2018-04-25T08:16:05.715Z,100091.30
2018-04-25T08:21:47.515Z,100078.89
2018-04-25T08:24:15.864Z,100085.41
2018-04-25T08:26:44.212Z,100084.11
2018-04-25T08:29:13.002Z,100092.44
2018-04-25T08:31:41.323Z,100087.95
2018-04-25T08:34:09.678Z,100093.12
2018-04-25T08:36:38.039Z,100092.88
2018-04-25T08:39:06.367Z,100103.82
2018-04-25T08:41:34.700Z,100092.73
2018-04-25T08:44:03.116Z,100091.52
2018-04-25T08:46:32.249Z,100099.27
2018-04-25T08:49:00.634Z,100099.31
2018-04-25T08:51:29.183Z,100099.92
2018-04-25T08:53:57.530Z,100101.11
2018-04-25T08:56:25.873Z,100097.94
2018-04-25T08:58:54.529Z,100111.47
2018-04-25T09:01:23.620Z,100116.73
2018-04-25T09:03:52.712Z,100115.50
2018-04-25T09:06:21.093Z,100118.41
2018-04-25T09:08:49.428Z,100128.09
2018-04-25T09:11:17.771Z,100114.59
2018-04-25T09:13:46.361Z,100118.87
2018-04-25T09:16:14.728Z,100118.84
2018-04-25T09:18:43.063Z,100126.35
2018-04-25T09:21:11.444Z,100132.55
2018-04-25T09:23:39.797Z,100147.97
2018-04-25T09:26:08.127Z,100154.76
2018-04-25T09:28:37.318Z,100150.31
2018-04-25T09:31:05.640Z,100149.58
2018-04-25T09:33:33.976Z,100147.75
2018-04-25T09:36:02.672Z,100160.77
2018-04-25T09:38:30.980Z,100161.83
2018-04-25T09:40:59.308Z,100157.08
2018-04-25T09:43:27.703Z,100169.62
2018-04-25T09:45:56.177Z,100177.27
2018-04-25T09:48:24.452Z,100188.13
2018-04-25T09:50:52.812Z,100205.80
2018-04-25T09:53:21.129Z,100215.14
2018-04-25T09:55:50.242Z,100221.45
2018-04-25T09:58:19.776Z,100237.08
2018-04-25T10:00:53.750Z,100236.08
2018-04-25T10:03:23.788Z,100244.27
2018-04-25T10:05:52.115Z,100243.96
2018-04-25T10:08:20.459Z,100252.93
2018-04-25T10:10:48.943Z,100269.50
2018-04-25T10:13:17.291Z,100261.51
2018-04-25T10:15:46.396Z,100283.01
2018-04-25T10:18:15.236Z,100297.41
2018-04-25T10:20:43.586Z,100296.36
2018-04-25T10:23:11.947Z,100315.91
2018-04-25T10:25:40.407Z,100325.60
2018-04-25T10:28:08.682Z,100325.60
2018-04-25T10:30:37.829Z,100334.01
2018-04-25T10:33:06.207Z,100344.52
2018-04-25T10:35:34.508Z,100340.39
2018-04-25T10:38:02.875Z,100346.59
2018-04-25T10:40:31.379Z,100360.16
2018-04-25T10:42:59.685Z,100342.41
2018-04-25T10:45:28.021Z,100346.92
2018-04-25T10:47:56.397Z,100349.44
2018-04-25T10:50:24.735Z,100360.10
2018-04-25T10:52:53.127Z,100368.29
2018-04-25T10:55:21.519Z,100386.92
2018-04-25T10:57:49.870Z,100394.83
2018-04-25T11:00:18.187Z,100417.01
2018-04-25T11:02:46.880Z,100409.92
2018-04-25T11:05:15.251Z,100405.84
2018-04-25T11:07:44.164Z,100418.12
2018-04-25T11:10:12.534Z,100421.90
2018-04-25T11:12:40.867Z,100425.84
2018-04-25T11:15:09.222Z,100444.29
2018-04-25T11:17:38.338Z,100451.16
2018-04-25T11:20:07.436Z,100459.80
2018-04-25T11:22:35.780Z,100459.45
2018-04-25T11:25:04.363Z,100480.02
2018-04-25T11:27:32.735Z,100485.02
2018-04-25T11:30:01.047Z,100492.31
2018-04-25T11:32:29.450Z,100506.84
2018-04-25T11:34:57.802Z,100518.39
2018-04-25T11:37:26.182Z,100519.35
2018-04-25T11:39:55.304Z,100548.59
2018-04-25T11:42:23.625Z,100562.89
2018-04-25T11:44:52.005Z,100561.67
2018-04-25T11:47:20.599Z,100579.17
2018-04-25T11:49:48.921Z,100576.70
2018-04-25T11:52:17.281Z,100594.81
2018-04-25T11:54:46.414Z,100592.94
2018-04-25T11:57:15.497Z,100598.42
2018-04-25T11:59:43.835Z,100593.52
2018-04-25T12:02:12.663Z,100610.03
2018-04-25T12:04:41.022Z,100610.95
2018-04-25T12:07:10.144Z,100615.98
2018-04-25T12:09:38.838Z,100631.98
2018-04-25T12:12:07.162Z,100626.27
2018-04-25T12:14:35.514Z,100632.83
2018-04-25T12:17:03.876Z,100621.59
2018-04-25T12:19:32.188Z,100622.16
2018-04-25T12:22:00.566Z,100626.97
2018-04-25T12:24:29.029Z,100642.52
2018-04-25T12:26:58.091Z,100634.39
2018-04-25T12:29:26.417Z,100634.88
2018-04-25T12:31:55.767Z,100636.50
2018-04-25T12:34:24.120Z,100637.67
2018-04-25T12:36:52.481Z,100645.61
2018-04-25T12:39:20.855Z,100643.87
2018-04-25T12:41:49.253Z,100638.48
2018-04-25T12:44:17.589Z,100647.55
2018-04-25T12:46:45.967Z,100659.48
2018-04-25T12:49:15.187Z,100656.84
2018-04-25T12:51:43.493Z,100664.98
2018-04-25T12:54:12.273Z,100661.71
2018-04-25T12:56:40.639Z,100670.44
2018-04-25T12:59:08.975Z,100672.92
2018-04-25T13:01:37.346Z,100670.13
2018-04-25T13:04:06.179Z,100680.69
2018-04-25T13:06:34.556Z,100681.50
2018-04-25T13:09:02.965Z,100693.13
2018-04-25T13:11:31.330Z,100702.85
2018-04-25T13:13:59.655Z,100696.89
2018-04-25T13:16:28.980Z,100703.11
2018-04-25T13:18:58.100Z,100716.38
2018-04-25T13:21:26.521Z,100711.84
2018-04-25T13:23:54.808Z,100729.33
2018-04-25T13:26:23.889Z,100718.03
2018-04-25T13:28:53.021Z,100730.84
2018-04-25T13:31:21.421Z,100737.21
2018-04-25T13:33:49.752Z,100739.92
2018-04-25T13:36:18.858Z,100735.08
2018-04-25T13:38:48.258Z,100739.94
2018-04-25T13:41:17.391Z,100745.17
2018-04-25T13:43:45.763Z,100754.39
2018-04-25T13:46:14.149Z,100755.25
2018-04-25T13:48:42.479Z,100765.16
2018-04-25T13:51:10.800Z,100758.29
2018-04-25T13:53:39.142Z,100777.63
2018-04-25T13:56:08.237Z,100773.35
2018-04-25T13:58:36.577Z,100770.61
2018-04-25T14:01:05.160Z,100772.84
2018-04-25T14:03:33.507Z,100784.94
2018-04-25T14:06:02.112Z,100791.83
2018-04-25T14:08:30.518Z,100785.98
2018-04-25T14:10:58.865Z,100791.81
2018-04-25T14:13:27.208Z,100792.03
2018-04-25T14:15:56.329Z,100790.76
2018-04-25T14:18:24.698Z,100795.71
2018-04-25T14:20:53.028Z,100787.64
2018-04-25T14:23:21.580Z,100781.11
2018-04-25T14:25:49.936Z,100789.44
2018-04-25T14:28:19.029Z,100786.87
2018-04-25T14:30:48.124Z,100794.66
2018-04-25T14:33:17.235Z,100798.17
2018-04-25T14:35:45.569Z,100798.47
2018-04-25T14:38:13.917Z,100795.02
2018-04-25T14:40:42.348Z,100791.44
2018-04-25T14:43:10.697Z,100788.27
2018-04-25T14:45:39.304Z,100793.13
2018-04-25T14:48:07.652Z,100797.59
2018-04-25T14:50:35.961Z,100796.77
2018-04-25T14:53:04.372Z,100797.85
2018-04-25T14:55:32.717Z,100791.17
2018-04-25T14:58:01.020Z,100794.33
2018-04-25T15:00:29.383Z,100789.80
2018-04-25T15:02:58.487Z,100793.45
2018-04-25T15:05:27.651Z,100786.76
2018-04-25T15:07:56.739Z,100792.34
2018-04-25T15:10:25.111Z,100795.09
2018-04-25T15:12:53.446Z,100792.91
2018-04-25T15:15:22.579Z,100794.55
2018-04-25T15:17:50.895Z,100793.80
2018-04-25T15:20:19.246Z,100797.45
2018-04-25T15:22:47.575Z,100792.00
2018-04-25T15:25:15.919Z,100794.12
2018-04-25T15:27:44.261Z,100787.98
2018-04-25T15:30:12.852Z,100786.00
2018-04-25T15:32:41.189Z,100789.16
2018-04-25T15:35:10.288Z,100791.78
2018-04-25T15:37:38.701Z,100793.59
2018-04-25T15:40:07.043Z,100801.91
2018-04-25T15:42:36.148Z,100806.25
2018-04-25T15:45:04.544Z,100807.69
2018-04-25T15:47:32.906Z,100809.14
2018-04-25T15:50:01.276Z,100812.50
2018-04-25T15:52:29.927Z,100820.80
2018-04-25T15:54:58.284Z,100820.52
2018-04-25T15:57:26.698Z,100818.86
2018-04-25T15:59:55.091Z,100815.03
2018-04-25T16:02:23.437Z,100814.75
2018-04-25T16:04:51.781Z,100819.96
2018-04-25T16:07:21.187Z,100823.90
2018-04-25T16:09:49.497Z,100814.78
2018-04-25T16:12:17.932Z,100804.23
2018-04-25T16:14:46.455Z,100814.17
2018-04-25T16:17:14.802Z,100816.39
2018-04-25T16:19:43.867Z,100816.47
2018-04-25T16:22:12.258Z,100821.11
2018-04-25T16:24:41.396Z,100814.08
2018-04-25T16:27:09.713Z,100813.39
2018-04-25T16:29:38.109Z,100807.08
2018-04-25T16:32:06.488Z,100807.42
2018-04-25T16:34:35.647Z,100808.50
2018-04-25T16:37:04.287Z,100804.79
2018-04-25T16:39:33.418Z,100798.56
2018-04-25T16:42:01.810Z,100805.39
2018-04-25T16:44:30.386Z,100795.59
2018-04-25T16:46:58.686Z,100788.97
2018-04-25T16:49:27.080Z,100791.25
2018-04-25T16:51:55.453Z,100785.38
2018-04-25T16:54:23.988Z,100786.52
2018-04-25T16:56:52.306Z,100791.22
2018-04-25T16:59:20.899Z,100795.97
2018-04-25T17:01:49.239Z,100792.03
2018-04-25T17:04:17.569Z,100788.16
2018-04-25T17:06:45.947Z,100781.47
2018-04-25T17:09:14.685Z,100779.36
2018-04-25T17:11:43.037Z,100796.77
2018-04-25T17:14:11.387Z,100796.45
2018-04-25T17:16:39.719Z,100791.86
2018-04-25T17:19:08.132Z,100792.87
2018-04-25T17:21:37.636Z,100799.34
2018-04-25T17:24:05.963Z,100785.57
2018-04-25T17:26:34.396Z,100790.48
2018-04-25T17:29:02.766Z,100786.78
2018-04-25T17:31:31.098Z,100777.97
2018-04-25T17:34:00.184Z,100777.64
2018-04-25T17:36:28.582Z,100782.92
2018-04-25T17:38:57.693Z,100784.66
2018-04-25T17:41:26.127Z,100776.48
2018-04-25T17:43:54.984Z,100774.44
2018-04-25T17:46:23.249Z,100778.12
2018-04-25T17:48:51.635Z,100778.93
2018-04-25T17:51:20.040Z,100779.91
2018-04-25T17:53:48.409Z,100784.95
2018-04-25T17:56:16.736Z,100785.47
2018-04-25T17:58:45.108Z,100781.22
2018-04-25T18:01:14.240Z,100786.83
2018-04-25T18:03:42.610Z,100790.08
2018-04-25T18:06:11.164Z,100790.43
2018-04-25T18:08:40.268Z,100790.41
2018-04-25T18:11:09.776Z,100796.11
2018-04-25T18:13:39.033Z,100786.72
2018-04-25T18:16:07.386Z,100788.73
2018-04-25T18:18:35.837Z,100785.03
2018-04-25T18:21:04.956Z,100799.50
2018-04-25T18:23:33.321Z,100799.47
2018-04-25T18:26:01.726Z,100793.30
2018-04-25T18:28:30.303Z,100797.00
2018-04-25T18:30:58.648Z,100800.73
2018-04-25T18:33:27.762Z,100794.39
2018-04-25T18:35:56.196Z,100801.61
2018-04-25T18:38:24.554Z,100805.32
2018-04-25T18:40:52.908Z,100800.55
2018-04-25T18:43:21.306Z,100809.34
2018-04-25T18:45:49.658Z,100811.52
2018-04-25T18:48:18.069Z,100816.76
2018-04-25T18:50:47.449Z,100813.30
2018-04-25T18:53:15.813Z,100825.87
2018-04-25T18:55:44.195Z,100824.23
2018-04-25T18:58:12.605Z,100824.69
2018-04-25T19:00:40.989Z,100828.50
2018-04-25T19:03:09.415Z,100832.73
2018-04-25T19:05:37.773Z,100834.74
2018-04-25T19:08:06.147Z,100824.37
2018-04-25T19:10:34.504Z,100830.27
2018-04-25T19:13:03.339Z,100841.85
2018-04-25T19:15:31.700Z,100842.01
2018-04-25T19:18:00.058Z,100847.30
2018-04-25T19:20:28.425Z,100849.81
2018-04-25T19:22:56.776Z,100851.45
2018-04-25T19:25:25.123Z,100860.44
2018-04-25T19:27:54.311Z,100864.36
2018-04-25T19:30:22.679Z,100857.15
2018-04-25T19:32:51.081Z,100855.78
2018-04-25T19:35:19.572Z,100865.00
2018-04-25T19:37:47.950Z,100860.95
2018-04-25T19:40:16.292Z,100866.01
2018-04-25T19:42:44.615Z,100858.80
2018-04-25T19:45:12.966Z,100851.50
2018-04-25T19:47:42.088Z,100861.53
2018-04-25T19:50:11.300Z,100868.83
2018-04-25T19:52:39.623Z,100864.84
2018-04-25T19:55:07.960Z,100881.13
2018-04-25T19:57:36.549Z,100879.57
2018-04-25T20:00:04.990Z,100891.43
2018-04-25T20:02:33.362Z,100896.30
2018-04-25T20:05:01.745Z,100889.98
2018-04-25T20:07:30.121Z,100887.32
2018-04-25T20:09:58.475Z,100883.19
2018-04-25T20:12:27.077Z,100890.31
2018-04-25T20:14:55.513Z,100870.94
2018-04-25T20:17:23.845Z,100878.75
2018-04-25T20:19:52.395Z,100884.55
2018-04-25T20:22:20.734Z,100870.87
2018-04-25T20:24:49.080Z,100864.19
2018-04-25T20:27:17.471Z,100863.41
2018-04-25T20:29:45.887Z,100859.37
2018-04-25T20:32:14.212Z,100856.48
2018-04-25T20:34:42.586Z,100859.63
2018-04-25T20:37:10.926Z,100867.75
2018-04-25T20:39:39.261Z,100867.51
2018-04-25T20:42:07.661Z,100872.68
2018-04-25T20:44:36.012Z,100879.62
2018-04-25T20:47:04.349Z,100879.97
2018-04-25T20:49:33.492Z,100881.67
2018-04-25T20:52:01.853Z,100895.58
2018-04-25T20:54:30.328Z,100896.17
2018-04-25T20:56:58.694Z,100899.19
2018-04-25T20:59:27.040Z,100893.73
2018-04-25T21:01:55.411Z,100892.96
2018-04-25T21:04:23.871Z,100895.94
2018-04-25T21:06:52.207Z,100889.03
2018-04-25T21:09:20.552Z,100893.92
2018-04-25T21:11:48.925Z,100894.09
2018-04-25T21:14:17.344Z,100895.61
2018-04-25T21:16:45.654Z,100895.61
2018-04-25T21:19:14.060Z,100896.08
2018-04-25T21:21:42.443Z,100902.53
2018-04-25T21:24:10.768Z,100899.52
2018-04-25T21:26:39.528Z,100895.31
2018-04-25T21:29:07.843Z,100896.77
2018-04-25T21:31:36.195Z,100902.54
2018-04-25T21:34:05.299Z,100898.44
2018-04-25T21:36:34.374Z,100898.03
2018-04-25T21:39:02.758Z,100899.51
2018-04-25T21:41:31.134Z,100897.38
2018-04-25T21:43:59.466Z,100897.41
2018-04-25T21:46:27.777Z,100897.95
2018-04-25T21:48:56.382Z,100902.38
2018-04-25T21:51:25.514Z,100895.75
2018-04-25T21:53:53.887Z,100896.28
2018-04-25T21:56:22.235Z,100898.09
2018-04-25T21:58:50.594Z,100896.81
2018-04-25T22:01:18.912Z,100886.80
2018-04-25T22:03:47.277Z,100891.05
2018-04-25T22:06:16.419Z,100890.45
2018-04-25T22:08:44.791Z,100894.91
2018-04-25T22:11:13.432Z,100896.38
2018-04-25T22:13:41.787Z,100894.27
2018-04-25T22:16:10.382Z,100896.46
2018-04-25T22:18:38.782Z,100897.04
2018-04-25T22:21:07.165Z,100889.16
2018-04-25T22:23:35.505Z,100888.02
2018-04-25T22:26:03.923Z,100890.90
2018-04-25T22:28:33.052Z,100889.20
2018-04-25T22:31:01.365Z,100892.98
2018-04-25T22:33:30.202Z,100885.77
2018-04-25T22:35:58.531Z,100888.73
2018-04-25T22:38:26.863Z,100892.59
2018-04-25T22:40:55.327Z,100896.23
2018-04-25T22:43:24.414Z,100890.28
2018-04-25T22:45:52.771Z,100888.48
2018-04-25T22:48:21.147Z,100881.88
2018-04-25T22:50:49.511Z,100886.81
2018-04-25T22:53:17.857Z,100883.54
2018-04-25T22:55:46.409Z,100890.58
2018-04-25T22:58:14.744Z,100890.58
2018-04-25T23:00:43.107Z,100888.75
2018-04-25T23:03:11.473Z,100884.23
2018-04-25T23:05:39.818Z,100881.63
2018-04-25T23:08:08.160Z,100882.22
2018-04-25T23:10:36.516Z,100883.77
2018-04-25T23:13:04.851Z,100891.77
2018-04-25T23:15:33.200Z,100891.61
2018-04-25T23:18:01.937Z,100894.96
2018-04-25T23:20:30.280Z,100888.94
2018-04-25T23:22:58.612Z,100890.37
2018-04-25T23:25:26.993Z,100888.30
2018-04-25T23:27:55.329Z,100885.96
2018-04-25T23:30:23.638Z,100891.19
2018-04-25T23:32:52.745Z,100876.78
2018-04-25T23:35:21.078Z,100878.95
2018-04-25T23:37:49.415Z,100885.45
2018-04-25T23:40:17.940Z,100886.27
2018-04-25T23:42:46.267Z,100879.17
2018-04-25T23:45:14.559Z,100878.97
2018-04-25T23:47:42.903Z,100876.17
2018-04-25T23:50:12.067Z,100862.03
2018-04-25T23:52:40.381Z,100868.53
2018-04-25T23:55:08.722Z,100870.02
2018-04-25T23:57:37.033Z,100879.86
